sensor_id;sensor_type;location;lat;lon;timestamp;P1;durP1;ratioP1;P2;durP2;ratioP2
50219;SDS011;36110;51.536;7.562;2023-08-30T00:01:49;1.40;;;1.30;;
50219;SDS011;36110;51.536;7.562;2023-08-30T00:04:14;1.20;;;1.10;;
50219;SDS011;36110;51.536;7.562;2023-08-30T00:06:40;1.52;;;1.42;;
50219;SDS011;36110;51.536;7.562;2023-08-30T00:09:05;1.40;;;1.30;;
50219;SDS011;36110;51.536;7.562;2023-08-30T00:11:30;1.52;;;1.42;;
50219;SDS011;36110;51.536;7.562;2023-08-30T00:14:04;1.40;;;1.30;;
50219;SDS011;36110;51.536;7.562;2023-08-30T00:16:30;1.67;;;1.58;;
50219;SDS011;36110;51.536;7.562;2023-08-30T00:18:56;1.35;;;1.25;;
50219;SDS011;36110;51.536;7.562;2023-08-30T00:21:22;1.42;;;1.33;;
50219;SDS011;36110;51.536;7.562;2023-08-30T00:23:47;2.47;;;1.40;;
50219;SDS011;36110;51.536;7.562;2023-08-30T00:26:12;1.48;;;1.38;;
50219;SDS011;36110;51.536;7.562;2023-08-30T00:28:37;1.70;;;1.60;;
50219;SDS011;36110;51.536;7.562;2023-08-30T00:31:03;1.50;;;1.40;;
50219;SDS011;36110;51.536;7.562;2023-08-30T00:33:28;1.23;;;1.17;;
50219;SDS011;36110;51.536;7.562;2023-08-30T00:35:57;1.23;;;1.23;;
50219;SDS011;36110;51.536;7.562;2023-08-30T00:38:23;2.40;;;2.20;;
50219;SDS011;36110;51.536;7.562;2023-08-30T00:40:49;1.58;;;1.48;;
50219;SDS011;36110;51.536;7.562;2023-08-30T00:43:14;2.40;;;2.20;;
50219;SDS011;36110;51.536;7.562;2023-08-30T00:45:40;1.60;;;1.38;;
50219;SDS011;36110;51.536;7.562;2023-08-30T00:48:05;1.77;;;1.67;;
50219;SDS011;36110;51.536;7.562;2023-08-30T00:50:31;1.63;;;1.52;;
50219;SDS011;36110;51.536;7.562;2023-08-30T00:52:57;1.60;;;1.50;;
50219;SDS011;36110;51.536;7.562;2023-08-30T00:55:22;1.48;;;1.38;;
50219;SDS011;36110;51.536;7.562;2023-08-30T00:57:48;1.40;;;1.30;;
50219;SDS011;36110;51.536;7.562;2023-08-30T01:00:13;1.40;;;1.30;;
50219;SDS011;36110;51.536;7.562;2023-08-30T01:02:38;1.42;;;1.33;;
50219;SDS011;36110;51.536;7.562;2023-08-30T01:05:04;1.38;;;1.27;;
50219;SDS011;36110;51.536;7.562;2023-08-30T01:07:30;1.48;;;1.38;;
50219;SDS011;36110;51.536;7.562;2023-08-30T01:09:55;1.60;;;1.50;;
50219;SDS011;36110;51.536;7.562;2023-08-30T01:12:22;1.50;;;1.40;;
50219;SDS011;36110;51.536;7.562;2023-08-30T01:17:23;1.50;;;1.40;;
50219;SDS011;36110;51.536;7.562;2023-08-30T01:19:51;1.33;;;1.23;;
50219;SDS011;36110;51.536;7.562;2023-08-30T01:24:58;1.58;;;1.48;;
50219;SDS011;36110;51.536;7.562;2023-08-30T01:27:29;1.50;;;1.30;;
50219;SDS011;36110;51.536;7.562;2023-08-30T01:29:57;1.52;;;1.42;;
50219;SDS011;36110;51.536;7.562;2023-08-30T01:32:22;1.52;;;1.30;;
50219;SDS011;36110;51.536;7.562;2023-08-30T01:34:50;1.52;;;1.42;;
50219;SDS011;36110;51.536;7.562;2023-08-30T01:37:16;2.63;;;2.42;;
50219;SDS011;36110;51.536;7.562;2023-08-30T01:39:42;1.63;;;1.52;;
50219;SDS011;36110;51.536;7.562;2023-08-30T01:42:08;1.48;;;1.38;;
50219;SDS011;36110;51.536;7.562;2023-08-30T01:44:34;1.30;;;1.30;;
50219;SDS011;36110;51.536;7.562;2023-08-30T01:46:59;1.38;;;1.27;;
50219;SDS011;36110;51.536;7.562;2023-08-30T01:49:25;1.60;;;1.50;;
50219;SDS011;36110;51.536;7.562;2023-08-30T01:51:51;1.40;;;1.30;;
50219;SDS011;36110;51.536;7.562;2023-08-30T01:54:17;1.45;;;1.35;;
50219;SDS011;36110;51.536;7.562;2023-08-30T01:56:44;1.50;;;1.40;;
50219;SDS011;36110;51.536;7.562;2023-08-30T01:59:09;1.63;;;1.52;;
50219;SDS011;36110;51.536;7.562;2023-08-30T02:01:35;1.63;;;1.52;;
50219;SDS011;36110;51.536;7.562;2023-08-30T02:04:00;1.30;;;1.30;;
50219;SDS011;36110;51.536;7.562;2023-08-30T02:09:37;1.30;;;1.20;;
50219;SDS011;36110;51.536;7.562;2023-08-30T02:12:07;1.40;;;1.30;;
50219;SDS011;36110;51.536;7.562;2023-08-30T02:14:33;2.33;;;1.20;;
50219;SDS011;36110;51.536;7.562;2023-08-30T02:17:00;1.50;;;1.40;;
50219;SDS011;36110;51.536;7.562;2023-08-30T02:19:26;1.48;;;1.38;;
50219;SDS011;36110;51.536;7.562;2023-08-30T02:21:51;1.50;;;1.40;;
50219;SDS011;36110;51.536;7.562;2023-08-30T02:24:17;1.60;;;1.50;;
50219;SDS011;36110;51.536;7.562;2023-08-30T02:26:42;1.55;;;1.45;;
50219;SDS011;36110;51.536;7.562;2023-08-30T02:29:07;1.40;;;1.30;;
50219;SDS011;36110;51.536;7.562;2023-08-30T02:31:34;1.50;;;1.40;;
50219;SDS011;36110;51.536;7.562;2023-08-30T02:34:00;1.35;;;1.30;;
50219;SDS011;36110;51.536;7.562;2023-08-30T02:36:26;1.48;;;1.38;;
50219;SDS011;36110;51.536;7.562;2023-08-30T02:38:52;1.52;;;1.30;;
50219;SDS011;36110;51.536;7.562;2023-08-30T02:41:17;1.55;;;1.45;;
50219;SDS011;36110;51.536;7.562;2023-08-30T02:43:42;1.42;;;1.33;;
50219;SDS011;36110;51.536;7.562;2023-08-30T02:46:08;1.40;;;1.30;;
50219;SDS011;36110;51.536;7.562;2023-08-30T02:48:33;1.27;;;1.20;;
50219;SDS011;36110;51.536;7.562;2023-08-30T02:50:58;1.30;;;1.30;;
50219;SDS011;36110;51.536;7.562;2023-08-30T02:53:24;1.60;;;1.50;;
50219;SDS011;36110;51.536;7.562;2023-08-30T02:55:49;1.60;;;1.50;;
50219;SDS011;36110;51.536;7.562;2023-08-30T02:58:15;1.45;;;1.35;;
50219;SDS011;36110;51.536;7.562;2023-08-30T03:00:40;1.50;;;1.40;;
50219;SDS011;36110;51.536;7.562;2023-08-30T03:03:05;1.45;;;1.35;;
50219;SDS011;36110;51.536;7.562;2023-08-30T03:05:31;1.40;;;1.30;;
50219;SDS011;36110;51.536;7.562;2023-08-30T03:07:56;1.40;;;1.30;;
50219;SDS011;36110;51.536;7.562;2023-08-30T03:10:22;1.38;;;1.23;;
50219;SDS011;36110;51.536;7.562;2023-08-30T03:12:47;1.50;;;1.40;;
50219;SDS011;36110;51.536;7.562;2023-08-30T03:15:12;1.52;;;1.42;;
50219;SDS011;36110;51.536;7.562;2023-08-30T03:17:38;1.48;;;1.30;;
50219;SDS011;36110;51.536;7.562;2023-08-30T03:20:03;1.40;;;1.30;;
50219;SDS011;36110;51.536;7.562;2023-08-30T03:22:30;1.25;;;1.20;;
50219;SDS011;36110;51.536;7.562;2023-08-30T03:24:56;1.33;;;1.23;;
50219;SDS011;36110;51.536;7.562;2023-08-30T03:27:21;1.27;;;1.17;;
50219;SDS011;36110;51.536;7.562;2023-08-30T03:29:46;1.50;;;1.40;;
50219;SDS011;36110;51.536;7.562;2023-08-30T03:32:17;1.50;;;1.40;;
50219;SDS011;36110;51.536;7.562;2023-08-30T03:34:46;1.33;;;1.23;;
50219;SDS011;36110;51.536;7.562;2023-08-30T03:37:15;1.40;;;1.30;;
50219;SDS011;36110;51.536;7.562;2023-08-30T03:39:41;1.42;;;1.33;;
50219;SDS011;36110;51.536;7.562;2023-08-30T03:42:06;1.60;;;1.50;;
50219;SDS011;36110;51.536;7.562;2023-08-30T03:44:32;1.50;;;1.40;;
50219;SDS011;36110;51.536;7.562;2023-08-30T03:46:57;1.88;;;1.73;;
50219;SDS011;36110;51.536;7.562;2023-08-30T03:49:23;1.48;;;1.38;;
50219;SDS011;36110;51.536;7.562;2023-08-30T03:51:48;1.42;;;1.33;;
50219;SDS011;36110;51.536;7.562;2023-08-30T03:54:13;1.50;;;1.40;;
50219;SDS011;36110;51.536;7.562;2023-08-30T03:56:41;1.23;;;1.23;;
50219;SDS011;36110;51.536;7.562;2023-08-30T03:59:07;1.15;;;1.05;;
50219;SDS011;36110;51.536;7.562;2023-08-30T04:01:32;1.60;;;1.50;;
50219;SDS011;36110;51.536;7.562;2023-08-30T04:03:58;1.40;;;1.30;;
50219;SDS011;36110;51.536;7.562;2023-08-30T04:06:23;1.50;;;1.40;;
50219;SDS011;36110;51.536;7.562;2023-08-30T04:08:48;1.30;;;1.20;;
50219;SDS011;36110;51.536;7.562;2023-08-30T04:11:14;1.40;;;1.30;;
50219;SDS011;36110;51.536;7.562;2023-08-30T04:13:39;1.35;;;1.25;;
50219;SDS011;36110;51.536;7.562;2023-08-30T04:16:04;1.40;;;1.30;;
50219;SDS011;36110;51.536;7.562;2023-08-30T04:18:30;1.30;;;1.30;;
50219;SDS011;36110;51.536;7.562;2023-08-30T04:20:56;1.30;;;1.20;;
50219;SDS011;36110;51.536;7.562;2023-08-30T04:23:22;2.70;;;1.50;;
50219;SDS011;36110;51.536;7.562;2023-08-30T04:25:48;1.40;;;1.30;;
50219;SDS011;36110;51.536;7.562;2023-08-30T04:28:13;1.40;;;1.30;;
50219;SDS011;36110;51.536;7.562;2023-08-30T04:30:38;1.58;;;1.48;;
50219;SDS011;36110;51.536;7.562;2023-08-30T04:33:04;1.30;;;1.30;;
50219;SDS011;36110;51.536;7.562;2023-08-30T04:35:30;3.33;;;3.00;;
50219;SDS011;36110;51.536;7.562;2023-08-30T04:37:55;1.40;;;1.30;;
50219;SDS011;36110;51.536;7.562;2023-08-30T04:40:21;1.50;;;1.40;;
50219;SDS011;36110;51.536;7.562;2023-08-30T04:42:46;1.40;;;1.30;;
50219;SDS011;36110;51.536;7.562;2023-08-30T04:45:12;1.40;;;1.30;;
50219;SDS011;36110;51.536;7.562;2023-08-30T04:47:37;1.50;;;1.40;;
50219;SDS011;36110;51.536;7.562;2023-08-30T04:50:06;1.27;;;1.20;;
50219;SDS011;36110;51.536;7.562;2023-08-30T04:52:31;1.40;;;1.30;;
50219;SDS011;36110;51.536;7.562;2023-08-30T04:54:58;1.30;;;1.20;;
50219;SDS011;36110;51.536;7.562;2023-08-30T04:57:23;10.30;;;7.95;;
50219;SDS011;36110;51.536;7.562;2023-08-30T04:59:49;11.45;;;8.88;;
50219;SDS011;36110;51.536;7.562;2023-08-30T05:02:14;6.45;;;5.57;;
50219;SDS011;36110;51.536;7.562;2023-08-30T05:04:40;4.57;;;4.18;;
50219;SDS011;36110;51.536;7.562;2023-08-30T05:07:05;1.67;;;1.52;;
50219;SDS011;36110;51.536;7.562;2023-08-30T05:09:30;1.52;;;1.42;;
50219;SDS011;36110;51.536;7.562;2023-08-30T05:11:57;1.40;;;1.30;;
50219;SDS011;36110;51.536;7.562;2023-08-30T05:14:23;2.33;;;2.13;;
50219;SDS011;36110;51.536;7.562;2023-08-30T05:16:51;1.40;;;1.30;;
50219;SDS011;36110;51.536;7.562;2023-08-30T05:19:16;1.77;;;1.67;;
50219;SDS011;36110;51.536;7.562;2023-08-30T05:21:42;1.75;;;1.65;;
50219;SDS011;36110;51.536;7.562;2023-08-30T05:24:08;1.58;;;1.48;;
50219;SDS011;36110;51.536;7.562;2023-08-30T05:26:33;1.83;;;1.73;;
50219;SDS011;36110;51.536;7.562;2023-08-30T05:28:58;1.40;;;1.30;;
50219;SDS011;36110;51.536;7.562;2023-08-30T05:31:24;1.63;;;1.52;;
50219;SDS011;36110;51.536;7.562;2023-08-30T05:33:49;1.70;;;1.60;;
50219;SDS011;36110;51.536;7.562;2023-08-30T05:36:14;1.50;;;1.40;;
50219;SDS011;36110;51.536;7.562;2023-08-30T05:38:40;1.92;;;1.40;;
50219;SDS011;36110;51.536;7.562;2023-08-30T05:41:06;1.40;;;1.30;;
50219;SDS011;36110;51.536;7.562;2023-08-30T05:43:32;1.48;;;1.38;;
50219;SDS011;36110;51.536;7.562;2023-08-30T05:45:57;1.30;;;1.23;;
50219;SDS011;36110;51.536;7.562;2023-08-30T05:48:27;1.50;;;1.40;;
50219;SDS011;36110;51.536;7.562;2023-08-30T05:50:52;4.78;;;2.75;;
50219;SDS011;36110;51.536;7.562;2023-08-30T05:53:17;2.35;;;2.15;;
50219;SDS011;36110;51.536;7.562;2023-08-30T05:55:43;1.80;;;1.70;;
50219;SDS011;36110;51.536;7.562;2023-08-30T05:58:08;1.10;;;1.10;;
50219;SDS011;36110;51.536;7.562;2023-08-30T06:00:34;1.65;;;1.55;;
50219;SDS011;36110;51.536;7.562;2023-08-30T06:02:59;1.83;;;1.73;;
50219;SDS011;36110;51.536;7.562;2023-08-30T06:05:25;2.20;;;2.00;;
50219;SDS011;36110;51.536;7.562;2023-08-30T06:07:51;2.05;;;1.55;;
50219;SDS011;36110;51.536;7.562;2023-08-30T06:10:16;1.20;;;1.20;;
50219;SDS011;36110;51.536;7.562;2023-08-30T06:12:42;9.68;;;8.65;;
50219;SDS011;36110;51.536;7.562;2023-08-30T06:15:07;10.85;;;9.13;;
50219;SDS011;36110;51.536;7.562;2023-08-30T06:17:32;5.85;;;5.10;;
50219;SDS011;36110;51.536;7.562;2023-08-30T06:19:58;21.80;;;16.98;;
50219;SDS011;36110;51.536;7.562;2023-08-30T06:22:24;14.02;;;12.63;;
50219;SDS011;36110;51.536;7.562;2023-08-30T06:24:49;14.02;;;12.55;;
50219;SDS011;36110;51.536;7.562;2023-08-30T06:27:14;7.18;;;6.45;;
50219;SDS011;36110;51.536;7.562;2023-08-30T06:29:40;8.15;;;7.35;;
50219;SDS011;36110;51.536;7.562;2023-08-30T06:32:05;1.67;;;1.58;;
50219;SDS011;36110;51.536;7.562;2023-08-30T06:34:31;10.35;;;9.10;;
50219;SDS011;36110;51.536;7.562;2023-08-30T06:36:56;6.40;;;5.60;;
50219;SDS011;36110;51.536;7.562;2023-08-30T06:39:22;30.00;;;22.83;;
50219;SDS011;36110;51.536;7.562;2023-08-30T06:41:47;2.20;;;2.00;;
50219;SDS011;36110;51.536;7.562;2023-08-30T06:44:13;26.40;;;20.45;;
50219;SDS011;36110;51.536;7.562;2023-08-30T06:46:38;1.75;;;1.65;;
50219;SDS011;36110;51.536;7.562;2023-08-30T06:49:04;23.60;;;18.10;;
50219;SDS011;36110;51.536;7.562;2023-08-30T06:51:30;21.20;;;16.10;;
50219;SDS011;36110;51.536;7.562;2023-08-30T06:53:55;20.15;;;14.60;;
50219;SDS011;36110;51.536;7.562;2023-08-30T06:56:25;20.48;;;16.60;;
50219;SDS011;36110;51.536;7.562;2023-08-30T06:58:50;16.88;;;15.07;;
50219;SDS011;36110;51.536;7.562;2023-08-30T07:01:16;24.02;;;16.92;;
50219;SDS011;36110;51.536;7.562;2023-08-30T07:03:41;19.23;;;15.68;;
50219;SDS011;36110;51.536;7.562;2023-08-30T07:06:06;14.75;;;13.00;;
50219;SDS011;36110;51.536;7.562;2023-08-30T07:08:32;28.90;;;22.73;;
50219;SDS011;36110;51.536;7.562;2023-08-30T07:10:57;22.10;;;19.15;;
50219;SDS011;36110;51.536;7.562;2023-08-30T07:13:23;14.00;;;12.43;;
50219;SDS011;36110;51.536;7.562;2023-08-30T07:15:48;20.05;;;15.90;;
50219;SDS011;36110;51.536;7.562;2023-08-30T07:18:14;12.65;;;11.30;;
50219;SDS011;36110;51.536;7.562;2023-08-30T07:20:39;27.85;;;19.95;;
50219;SDS011;36110;51.536;7.562;2023-08-30T07:23:04;26.13;;;21.25;;
50219;SDS011;36110;51.536;7.562;2023-08-30T07:25:30;14.65;;;11.65;;
50219;SDS011;36110;51.536;7.562;2023-08-30T07:27:56;13.35;;;11.88;;
50219;SDS011;36110;51.536;7.562;2023-08-30T07:30:21;20.25;;;16.60;;
50219;SDS011;36110;51.536;7.562;2023-08-30T07:32:47;11.43;;;9.48;;
50219;SDS011;36110;51.536;7.562;2023-08-30T07:35:12;10.40;;;9.30;;
50219;SDS011;36110;51.536;7.562;2023-08-30T07:37:38;21.08;;;14.68;;
50219;SDS011;36110;51.536;7.562;2023-08-30T07:40:03;10.30;;;9.27;;
50219;SDS011;36110;51.536;7.562;2023-08-30T07:42:32;11.90;;;9.20;;
50219;SDS011;36110;51.536;7.562;2023-08-30T07:44:57;10.85;;;8.55;;
50219;SDS011;36110;51.536;7.562;2023-08-30T07:47:22;16.60;;;12.98;;
50219;SDS011;36110;51.536;7.562;2023-08-30T07:49:48;18.65;;;14.48;;
50219;SDS011;36110;51.536;7.562;2023-08-30T07:52:13;9.75;;;8.02;;
50219;SDS011;36110;51.536;7.562;2023-08-30T07:54:39;20.92;;;13.02;;
50219;SDS011;36110;51.536;7.562;2023-08-30T07:57:04;8.85;;;7.95;;
50219;SDS011;36110;51.536;7.562;2023-08-30T07:59:32;11.82;;;10.30;;
50219;SDS011;36110;51.536;7.562;2023-08-30T08:01:58;12.40;;;10.30;;
50219;SDS011;36110;51.536;7.562;2023-08-30T08:04:24;8.07;;;7.07;;
50219;SDS011;36110;51.536;7.562;2023-08-30T08:06:49;9.15;;;7.07;;
50219;SDS011;36110;51.536;7.562;2023-08-30T08:09:14;7.47;;;6.68;;
50219;SDS011;36110;51.536;7.562;2023-08-30T08:11:40;9.20;;;8.18;;
50219;SDS011;36110;51.536;7.562;2023-08-30T08:14:08;6.63;;;5.97;;
50219;SDS011;36110;51.536;7.562;2023-08-30T08:16:34;7.07;;;6.05;;
50219;SDS011;36110;51.536;7.562;2023-08-30T08:19:00;10.95;;;8.95;;
50219;SDS011;36110;51.536;7.562;2023-08-30T08:21:26;6.40;;;5.80;;
50219;SDS011;36110;51.536;7.562;2023-08-30T08:23:52;11.27;;;8.77;;
50219;SDS011;36110;51.536;7.562;2023-08-30T08:26:17;9.45;;;7.53;;
50219;SDS011;36110;51.536;7.562;2023-08-30T08:28:43;5.65;;;5.05;;
50219;SDS011;36110;51.536;7.562;2023-08-30T08:31:09;9.38;;;8.23;;
50219;SDS011;36110;51.536;7.562;2023-08-30T08:33:34;8.82;;;6.40;;
50219;SDS011;36110;51.536;7.562;2023-08-30T08:36:00;8.05;;;6.38;;
50219;SDS011;36110;51.536;7.562;2023-08-30T08:38:26;8.23;;;6.53;;
50219;SDS011;36110;51.536;7.562;2023-08-30T08:40:53;12.82;;;8.43;;
50219;SDS011;36110;51.536;7.562;2023-08-30T08:43:20;9.02;;;7.28;;
50219;SDS011;36110;51.536;7.562;2023-08-30T08:45:45;4.82;;;4.38;;
50219;SDS011;36110;51.536;7.562;2023-08-30T08:48:10;12.93;;;8.57;;
50219;SDS011;36110;51.536;7.562;2023-08-30T08:50:37;5.70;;;4.55;;
50219;SDS011;36110;51.536;7.562;2023-08-30T08:53:03;6.40;;;5.25;;
50219;SDS011;36110;51.536;7.562;2023-08-30T08:55:29;10.52;;;7.45;;
50219;SDS011;36110;51.536;7.562;2023-08-30T08:57:57;6.00;;;4.30;;
50219;SDS011;36110;51.536;7.562;2023-08-30T09:00:24;6.80;;;5.80;;
50219;SDS011;36110;51.536;7.562;2023-08-30T09:02:49;4.47;;;4.05;;
50219;SDS011;36110;51.536;7.562;2023-08-30T09:05:17;7.20;;;5.22;;
50219;SDS011;36110;51.536;7.562;2023-08-30T09:07:43;4.40;;;3.90;;
50219;SDS011;36110;51.536;7.562;2023-08-30T09:10:09;6.70;;;4.53;;
50219;SDS011;36110;51.536;7.562;2023-08-30T09:12:35;7.57;;;4.40;;
50219;SDS011;36110;51.536;7.562;2023-08-30T09:15:00;4.00;;;3.60;;
50219;SDS011;36110;51.536;7.562;2023-08-30T09:17:36;5.40;;;3.70;;
50219;SDS011;36110;51.536;7.562;2023-08-30T09:20:06;4.95;;;3.80;;
50219;SDS011;36110;51.536;7.562;2023-08-30T09:22:36;5.05;;;3.65;;
50219;SDS011;36110;51.536;7.562;2023-08-30T09:25:02;4.43;;;3.55;;
50219;SDS011;36110;51.536;7.562;2023-08-30T09:27:32;6.35;;;3.72;;
50219;SDS011;36110;51.536;7.562;2023-08-30T09:29:58;3.45;;;3.10;;
50219;SDS011;36110;51.536;7.562;2023-08-30T09:32:24;3.40;;;3.10;;
50219;SDS011;36110;51.536;7.562;2023-08-30T09:34:49;4.18;;;3.03;;
50219;SDS011;36110;51.536;7.562;2023-08-30T09:37:21;4.72;;;3.20;;
50219;SDS011;36110;51.536;7.562;2023-08-30T09:39:50;6.57;;;3.50;;
50219;SDS011;36110;51.536;7.562;2023-08-30T09:42:18;3.70;;;3.05;;
50219;SDS011;36110;51.536;7.562;2023-08-30T09:44:44;7.22;;;3.55;;
50219;SDS011;36110;51.536;7.562;2023-08-30T09:47:09;3.15;;;2.70;;
50219;SDS011;36110;51.536;7.562;2023-08-30T09:49:42;6.28;;;3.10;;
50219;SDS011;36110;51.536;7.562;2023-08-30T09:52:08;4.57;;;2.50;;
50219;SDS011;36110;51.536;7.562;2023-08-30T09:54:34;4.05;;;3.00;;
50219;SDS011;36110;51.536;7.562;2023-08-30T09:57:03;4.32;;;2.92;;
50219;SDS011;36110;51.536;7.562;2023-08-30T09:59:28;3.67;;;2.80;;
50219;SDS011;36110;51.536;7.562;2023-08-30T10:01:54;4.07;;;3.25;;
50219;SDS011;36110;51.536;7.562;2023-08-30T10:04:20;4.93;;;3.30;;
50219;SDS011;36110;51.536;7.562;2023-08-30T10:06:46;3.22;;;2.72;;
50219;SDS011;36110;51.536;7.562;2023-08-30T10:09:12;4.57;;;3.33;;
50219;SDS011;36110;51.536;7.562;2023-08-30T10:11:38;4.93;;;2.97;;
50219;SDS011;36110;51.536;7.562;2023-08-30T10:14:04;4.65;;;2.90;;
50219;SDS011;36110;51.536;7.562;2023-08-30T10:16:48;2.78;;;2.25;;
50219;SDS011;36110;51.536;7.562;2023-08-30T10:19:17;3.22;;;2.42;;
50219;SDS011;36110;51.536;7.562;2023-08-30T10:21:48;4.10;;;3.10;;
50219;SDS011;36110;51.536;7.562;2023-08-30T10:24:19;2.83;;;2.47;;
50219;SDS011;36110;51.536;7.562;2023-08-30T10:26:46;4.57;;;2.85;;
50219;SDS011;36110;51.536;7.562;2023-08-30T10:29:12;2.75;;;2.28;;
50219;SDS011;36110;51.536;7.562;2023-08-30T10:31:39;2.55;;;2.22;;
50219;SDS011;36110;51.536;7.562;2023-08-30T10:34:11;2.50;;;2.30;;
50219;SDS011;36110;51.536;7.562;2023-08-30T10:36:38;4.60;;;2.85;;
50219;SDS011;36110;51.536;7.562;2023-08-30T10:39:10;4.28;;;3.03;;
50219;SDS011;36110;51.536;7.562;2023-08-30T10:41:36;3.45;;;2.65;;
50219;SDS011;36110;51.536;7.562;2023-08-30T10:44:01;4.00;;;2.50;;
50219;SDS011;36110;51.536;7.562;2023-08-30T10:46:29;3.05;;;2.75;;
50219;SDS011;36110;51.536;7.562;2023-08-30T10:49:11;3.58;;;2.83;;
50219;SDS011;36110;51.536;7.562;2023-08-30T10:51:39;4.53;;;2.72;;
50219;SDS011;36110;51.536;7.562;2023-08-30T10:54:14;3.33;;;2.30;;
50219;SDS011;36110;51.536;7.562;2023-08-30T10:56:48;2.70;;;2.20;;
50219;SDS011;36110;51.536;7.562;2023-08-30T10:59:19;4.25;;;3.83;;
50219;SDS011;36110;51.536;7.562;2023-08-30T11:01:45;2.75;;;2.55;;
50219;SDS011;36110;51.536;7.562;2023-08-30T11:04:12;2.50;;;2.22;;
50219;SDS011;36110;51.536;7.562;2023-08-30T11:06:38;4.18;;;2.38;;
50219;SDS011;36110;51.536;7.562;2023-08-30T11:09:04;4.63;;;2.85;;
50219;SDS011;36110;51.536;7.562;2023-08-30T11:11:29;5.18;;;3.75;;
50219;SDS011;36110;51.536;7.562;2023-08-30T11:13:54;4.35;;;3.45;;
50219;SDS011;36110;51.536;7.562;2023-08-30T11:16:23;6.70;;;5.50;;
50219;SDS011;36110;51.536;7.562;2023-08-30T11:18:48;2.38;;;2.17;;
50219;SDS011;36110;51.536;7.562;2023-08-30T11:21:14;3.22;;;2.22;;
50219;SDS011;36110;51.536;7.562;2023-08-30T11:23:39;2.88;;;2.20;;
50219;SDS011;36110;51.536;7.562;2023-08-30T11:26:04;2.47;;;2.28;;
50219;SDS011;36110;51.536;7.562;2023-08-30T11:28:30;1.80;;;1.70;;
50219;SDS011;36110;51.536;7.562;2023-08-30T11:30:55;2.38;;;2.20;;
50219;SDS011;36110;51.536;7.562;2023-08-30T11:33:21;4.47;;;4.05;;
50219;SDS011;36110;51.536;7.562;2023-08-30T11:35:49;6.90;;;5.53;;
50219;SDS011;36110;51.536;7.562;2023-08-30T11:38:17;2.00;;;1.90;;
50219;SDS011;36110;51.536;7.562;2023-08-30T11:40:43;6.35;;;5.75;;
50219;SDS011;36110;51.536;7.562;2023-08-30T11:43:08;1.70;;;1.60;;
50219;SDS011;36110;51.536;7.562;2023-08-30T11:45:34;5.40;;;4.43;;
50219;SDS011;36110;51.536;7.562;2023-08-30T11:48:00;7.75;;;7.00;;
50219;SDS011;36110;51.536;7.562;2023-08-30T11:50:26;3.88;;;2.92;;
50219;SDS011;36110;51.536;7.562;2023-08-30T11:52:51;5.65;;;4.72;;
50219;SDS011;36110;51.536;7.562;2023-08-30T11:55:17;2.05;;;1.90;;
50219;SDS011;36110;51.536;7.562;2023-08-30T11:57:43;8.02;;;5.47;;
50219;SDS011;36110;51.536;7.562;2023-08-30T12:00:09;4.35;;;3.75;;
50219;SDS011;36110;51.536;7.562;2023-08-30T12:02:39;7.10;;;4.60;;
50219;SDS011;36110;51.536;7.562;2023-08-30T12:05:04;3.10;;;2.90;;
50219;SDS011;36110;51.536;7.562;2023-08-30T12:07:30;2.33;;;2.13;;
50219;SDS011;36110;51.536;7.562;2023-08-30T12:10:08;3.47;;;3.13;;
50219;SDS011;36110;51.536;7.562;2023-08-30T12:12:35;2.10;;;1.90;;
50219;SDS011;36110;51.536;7.562;2023-08-30T12:15:13;2.03;;;1.83;;
50219;SDS011;36110;51.536;7.562;2023-08-30T12:17:39;2.78;;;2.55;;
50219;SDS011;36110;51.536;7.562;2023-08-30T12:20:05;3.00;;;2.70;;
50219;SDS011;36110;51.536;7.562;2023-08-30T12:22:40;4.05;;;3.65;;
50219;SDS011;36110;51.536;7.562;2023-08-30T12:27:48;2.30;;;2.10;;
50219;SDS011;36110;51.536;7.562;2023-08-30T12:30:14;2.35;;;1.90;;
50219;SDS011;36110;51.536;7.562;2023-08-30T12:32:41;6.70;;;4.15;;
50219;SDS011;36110;51.536;7.562;2023-08-30T12:35:06;1.70;;;1.60;;
50219;SDS011;36110;51.536;7.562;2023-08-30T12:37:32;4.28;;;2.78;;
50219;SDS011;36110;51.536;7.562;2023-08-30T12:39:57;2.85;;;2.65;;
50219;SDS011;36110;51.536;7.562;2023-08-30T12:42:22;2.45;;;2.25;;
50219;SDS011;36110;51.536;7.562;2023-08-30T12:44:48;1.92;;;1.83;;
50219;SDS011;36110;51.536;7.562;2023-08-30T12:47:13;4.13;;;2.78;;
50219;SDS011;36110;51.536;7.562;2023-08-30T12:49:39;3.03;;;2.72;;
50219;SDS011;36110;51.536;7.562;2023-08-30T12:52:05;2.00;;;1.90;;
50219;SDS011;36110;51.536;7.562;2023-08-30T12:54:31;2.65;;;2.15;;
50219;SDS011;36110;51.536;7.562;2023-08-30T12:56:56;2.22;;;2.00;;
50219;SDS011;36110;51.536;7.562;2023-08-30T12:59:21;1.67;;;1.52;;
50219;SDS011;36110;51.536;7.562;2023-08-30T13:01:47;2.28;;;2.08;;
50219;SDS011;36110;51.536;7.562;2023-08-30T13:04:12;2.20;;;2.00;;
50219;SDS011;36110;51.536;7.562;2023-08-30T13:06:37;2.58;;;2.10;;
50219;SDS011;36110;51.536;7.562;2023-08-30T13:09:03;1.73;;;1.63;;
50219;SDS011;36110;51.536;7.562;2023-08-30T13:11:28;1.70;;;1.60;;
50219;SDS011;36110;51.536;7.562;2023-08-30T13:13:55;1.90;;;1.80;;
50219;SDS011;36110;51.536;7.562;2023-08-30T13:16:23;2.47;;;2.10;;
50219;SDS011;36110;51.536;7.562;2023-08-30T13:18:48;1.95;;;1.85;;
50219;SDS011;36110;51.536;7.562;2023-08-30T13:21:13;1.65;;;1.55;;
50219;SDS011;36110;51.536;7.562;2023-08-30T13:23:39;2.13;;;1.92;;
50219;SDS011;36110;51.536;7.562;2023-08-30T13:26:04;2.75;;;1.92;;
50219;SDS011;36110;51.536;7.562;2023-08-30T13:28:29;1.95;;;1.85;;
50219;SDS011;36110;51.536;7.562;2023-08-30T13:30:55;3.42;;;1.95;;
50219;SDS011;36110;51.536;7.562;2023-08-30T13:35:50;1.67;;;1.58;;
50219;SDS011;36110;51.536;7.562;2023-08-30T13:38:19;1.70;;;1.60;;
50219;SDS011;36110;51.536;7.562;2023-08-30T13:40:44;1.90;;;1.80;;
50219;SDS011;36110;51.536;7.562;2023-08-30T13:43:10;1.77;;;1.67;;
50219;SDS011;36110;51.536;7.562;2023-08-30T13:45:35;1.75;;;1.65;;
50219;SDS011;36110;51.536;7.562;2023-08-30T13:48:00;1.80;;;1.70;;
50219;SDS011;36110;51.536;7.562;2023-08-30T13:50:26;1.77;;;1.60;;
50219;SDS011;36110;51.536;7.562;2023-08-30T13:52:55;1.80;;;1.50;;
50219;SDS011;36110;51.536;7.562;2023-08-30T13:55:21;1.60;;;1.50;;
50219;SDS011;36110;51.536;7.562;2023-08-30T13:57:46;1.42;;;1.33;;
50219;SDS011;36110;51.536;7.562;2023-08-30T14:00:12;1.52;;;1.42;;
50219;SDS011;36110;51.536;7.562;2023-08-30T14:02:38;2.65;;;1.90;;
50219;SDS011;36110;51.536;7.562;2023-08-30T14:05:03;1.73;;;1.50;;
50219;SDS011;36110;51.536;7.562;2023-08-30T14:07:29;1.60;;;1.50;;
50219;SDS011;36110;51.536;7.562;2023-08-30T14:09:54;1.75;;;1.65;;
50219;SDS011;36110;51.536;7.562;2023-08-30T14:12:20;3.03;;;1.92;;
50219;SDS011;36110;51.536;7.562;2023-08-30T14:14:45;2.08;;;1.40;;
50219;SDS011;36110;51.536;7.562;2023-08-30T14:17:10;2.28;;;1.77;;
50219;SDS011;36110;51.536;7.562;2023-08-30T14:19:36;2.60;;;1.70;;
50219;SDS011;36110;51.536;7.562;2023-08-30T14:22:02;2.03;;;1.60;;
50219;SDS011;36110;51.536;7.562;2023-08-30T14:24:29;2.13;;;1.50;;
50219;SDS011;36110;51.536;7.562;2023-08-30T14:26:54;2.58;;;1.38;;
50219;SDS011;36110;51.536;7.562;2023-08-30T14:29:20;1.58;;;1.40;;
50219;SDS011;36110;51.536;7.562;2023-08-30T14:31:47;2.40;;;1.70;;
50219;SDS011;36110;51.536;7.562;2023-08-30T14:34:12;2.20;;;1.75;;
50219;SDS011;36110;51.536;7.562;2023-08-30T14:36:37;2.78;;;1.77;;
50219;SDS011;36110;51.536;7.562;2023-08-30T14:39:03;1.85;;;1.30;;
50219;SDS011;36110;51.536;7.562;2023-08-30T14:41:28;1.98;;;1.48;;
50219;SDS011;36110;51.536;7.562;2023-08-30T14:43:54;1.58;;;1.38;;
50219;SDS011;36110;51.536;7.562;2023-08-30T14:46:20;1.85;;;1.50;;
50219;SDS011;36110;51.536;7.562;2023-08-30T14:48:45;2.60;;;1.40;;
50219;SDS011;36110;51.536;7.562;2023-08-30T14:51:11;3.35;;;1.88;;
50219;SDS011;36110;51.536;7.562;2023-08-30T14:53:36;1.42;;;1.27;;